Time;durP1;ratioP1;P1;durP2;ratioP2;P2;SDS_P1;SDS_P2;PMS_P1;PMS_P2;Temp;Humidity;BMP_temperature;BMP_pressure;BME280_temperature;BME280_humidity;BME280_pressure;Samples;Min_cycle;Max_cycle;Signal;HPM_P1;HPM_P2
2021/09/30 00:00:38;;;;;;;1.58;0.50;;;9.40;99.90;;;;;;5015329;28;20049;-76
2021/09/30 00:03:05;;;;;;;2.53;0.80;;;9.30;99.90;;;;;;5029910;28;20040;-75
2021/09/30 00:05:32;;;;;;;3.17;0.50;;;9.30;99.90;;;;;;5045893;28;20056;-77
2021/09/30 00:07:58;;;;;;;3.28;0.60;;;9.20;99.90;;;;;;5043873;28;20043;-76
2021/09/30 00:10:25;;;;;;;3.05;0.50;;;9.20;99.90;;;;;;5062493;28;20040;-76
2021/09/30 00:13:00;;;;;;;2.38;0.52;;;9.20;99.90;;;;;;5064429;28;20043;-76
2021/09/30 00:15:37;;;;;;;3.65;0.50;;;9.20;99.90;;;;;;5031425;28;20369;-76
2021/09/30 00:34:42;;;;;;;3.30;0.82;;;9.00;99.90;;;;;;5026535;28;20862;-76
2021/09/30 00:40:17;;;;;;;2.90;0.50;;;9.00;99.90;;;;;;5041355;28;20045;-76
2021/09/30 00:51:07;;;;;;;5.47;0.57;;;9.00;99.90;;;;;;5039667;28;20813;-76
2021/09/30 02:20:20;;;;;;;4.93;1.90;;;8.70;99.90;;;;;;5059966;28;20055;-76
2021/09/30 02:28:37;;;;;;;9.88;3.03;;;8.60;99.90;;;;;;5054000;28;20040;-76
2021/09/30 02:31:30;;;;;;;5.63;2.83;;;8.60;99.90;;;;;;5046428;28;20042;-76
2021/09/30 02:59:46;;;;;;;5.15;2.10;;;8.40;99.90;;;;;;5062057;28;20032;-77
2021/09/30 03:02:15;;;;;;;6.55;2.47;;;8.40;99.90;;;;;;5039930;28;20039;-77
2021/09/30 03:04:43;;;;;;;4.25;2.05;;;8.30;99.90;;;;;;5042578;28;20052;-77
2021/09/30 03:07:11;;;;;;;6.85;2.35;;;8.30;99.90;;;;;;5040823;28;20068;-78
2021/09/30 03:09:41;;;;;;;6.80;3.00;;;8.30;99.90;;;;;;5037291;28;20052;-76
2021/09/30 03:12:49;;;;;;;5.95;2.60;;;8.30;99.90;;;;;;5061495;28;20370;-76
2021/09/30 03:23:24;;;;;;;8.77;3.00;;;8.20;99.90;;;;;;5043735;28;20044;-77
2021/09/30 03:25:52;;;;;;;5.57;2.50;;;8.20;99.90;;;;;;5049072;28;20033;-77
2021/09/30 03:28:23;;;;;;;7.03;3.13;;;8.20;99.90;;;;;;5025227;28;20501;-77
2021/09/30 03:30:53;;;;;;;5.90;2.60;;;8.20;99.90;;;;;;5044981;28;20044;-76
2021/09/30 03:33:21;;;;;;;8.48;3.38;;;8.20;99.90;;;;;;5046807;28;20044;-77
2021/09/30 03:35:59;;;;;;;5.88;2.90;;;8.20;99.90;;;;;;5034217;28;20078;-77
2021/09/30 03:38:26;;;;;;;7.03;2.88;;;8.20;99.90;;;;;;5050313;28;20047;-77
2021/09/30 03:40:53;;;;;;;6.00;2.15;;;8.20;99.90;;;;;;5031237;28;20126;-77
2021/09/30 03:43:19;;;;;;;8.75;3.05;;;8.20;99.90;;;;;;5050892;28;20064;-77
2021/09/30 03:45:49;;;;;;;6.85;2.58;;;8.20;99.90;;;;;;5010109;28;20051;-77
2021/09/30 03:48:26;;;;;;;7.65;2.95;;;8.20;99.90;;;;;;5031056;28;20044;-77
2021/09/30 03:51:17;;;;;;;8.43;2.33;;;8.10;99.90;;;;;;5047976;28;20036;-77
2021/09/30 04:01:29;;;;;;;7.38;1.90;;;8.10;99.90;;;;;;5049721;28;20040;-78
2021/09/30 04:03:56;;;;;;;5.32;2.22;;;8.10;99.90;;;;;;5037036;28;20040;-78
2021/09/30 04:06:22;;;;;;;8.48;2.22;;;8.10;99.90;;;;;;5050666;28;20043;-78
2021/09/30 04:08:51;;;;;;;9.65;1.80;;;8.00;99.90;;;;;;5049011;28;20063;-78
2021/09/30 04:11:18;;;;;;;5.20;1.42;;;8.00;99.90;;;;;;5053010;28;20046;-78
2021/09/30 04:13:46;;;;;;;5.85;1.83;;;8.00;99.90;;;;;;5028393;28;20094;-78
2021/09/30 04:16:12;;;;;;;4.10;1.40;;;8.00;99.90;;;;;;5009689;28;20049;-78
2021/09/30 04:18:39;;;;;;;7.40;2.13;;;8.00;99.90;;;;;;5046071;28;20028;-78
2021/09/30 04:21:05;;;;;;;4.65;1.80;;;8.00;99.90;;;;;;5011708;28;20480;-78
2021/09/30 04:23:32;;;;;;;3.88;1.75;;;8.00;99.90;;;;;;5020355;28;20045;-79
2021/09/30 04:25:58;;;;;;;6.43;1.77;;;8.00;99.90;;;;;;5044594;28;20059;-78
2021/09/30 04:28:25;;;;;;;5.72;1.52;;;8.00;99.90;;;;;;5019667;28;20044;-78
2021/09/30 04:30:57;;;;;;;4.75;1.80;;;7.90;99.90;;;;;;5029928;28;20860;-78
2021/09/30 04:33:27;;;;;;;9.88;2.28;;;7.90;99.90;;;;;;5034720;28;20051;-78
2021/09/30 04:35:56;;;;;;;7.72;2.08;;;7.90;99.90;;;;;;5017398;28;20048;-78
2021/09/30 04:38:22;;;;;;;9.18;1.98;;;7.90;99.90;;;;;;5063035;28;20495;-78
2021/09/30 04:40:49;;;;;;;5.63;1.67;;;8.00;99.90;;;;;;5027528;28;20374;-78
2021/09/30 04:43:17;;;;;;;9.15;3.25;;;7.90;99.90;;;;;;5035143;28;20055;-77
2021/09/30 04:45:44;;;;;;;8.40;3.13;;;7.90;99.90;;;;;;5020147;28;20052;-77
2021/09/30 04:48:17;;;;;;;8.50;2.50;;;8.00;99.90;;;;;;5017629;28;20370;-77
2021/09/30 04:50:48;;;;;;;13.88;2.38;;;8.00;99.90;;;;;;5027334;28;20056;-77
2021/09/30 04:53:14;;;;;;;6.85;2.10;;;8.00;99.90;;;;;;5034201;28;20037;-77
2021/09/30 04:55:41;;;;;;;12.05;2.55;;;8.00;99.90;;;;;;5026518;28;20044;-77
2021/09/30 04:58:07;;;;;;;9.02;2.90;;;8.00;99.90;;;;;;5017402;28;20500;-77
2021/09/30 05:00:36;;;;;;;8.82;3.63;;;8.00;99.90;;;;;;4999652;28;20377;-77
2021/09/30 05:03:15;;;;;;;9.60;3.13;;;8.00;99.90;;;;;;5005338;28;20052;-77
2021/09/30 05:05:41;;;;;;;5.90;2.80;;;8.00;99.90;;;;;;5048358;28;20051;-78
2021/09/30 05:08:09;;;;;;;9.55;2.65;;;8.00;99.90;;;;;;5048650;28;20058;-78
2021/09/30 05:10:41;;;;;;;8.00;2.80;;;8.00;99.90;;;;;;5019532;28;20913;-77
2021/09/30 05:13:36;;;;;;;9.63;3.45;;;8.00;99.90;;;;;;5031120;28;20052;-77
2021/09/30 05:15:56;;;;;;;7.03;2.67;;;8.00;99.90;;;;;;5040679;28;20055;-77
2021/09/30 05:18:50;;;;;;;12.27;2.95;;;8.00;99.90;;;;;;5052639;28;20516;-77
2021/09/30 05:21:17;;;;;;;9.43;2.78;;;8.00;99.90;;;;;;5026666;28;20044;-78
2021/09/30 05:23:44;;;;;;;7.05;2.75;;;8.00;99.90;;;;;;5029577;28;20047;-78
2021/09/30 05:26:11;;;;;;;14.90;4.00;;;8.00;99.90;;;;;;5043824;28;20508;-79
2021/09/30 05:28:37;;;;;;;9.57;3.53;;;8.00;99.90;;;;;;5015524;28;20052;-78
2021/09/30 05:31:04;;;;;;;13.07;3.47;;;8.00;99.90;;;;;;5041255;28;20040;-79
2021/09/30 05:33:50;;;;;;;11.07;3.75;;;8.00;99.90;;;;;;5066918;28;20041;-80
2021/09/30 05:36:18;;;;;;;8.57;3.80;;;8.00;99.90;;;;;;5048230;28;20044;-79
2021/09/30 05:38:45;;;;;;;11.85;4.43;;;8.00;99.90;;;;;;5014870;28;20040;-78
2021/09/30 05:41:12;;;;;;;10.88;3.55;;;8.00;99.90;;;;;;5048514;28;20055;-79
2021/09/30 05:43:41;;;;;;;9.65;3.78;;;8.00;99.90;;;;;;5014092;28;20055;-78
2021/09/30 05:46:10;;;;;;;11.88;4.10;;;8.00;99.90;;;;;;5049555;28;20035;-79
2021/09/30 05:48:36;;;;;;;7.57;3.58;;;8.00;99.90;;;;;;5046040;28;20051;-78
2021/09/30 05:51:03;;;;;;;8.20;3.55;;;8.00;99.90;;;;;;4997591;28;20056;-78
2021/09/30 05:53:48;;;;;;;9.35;3.30;;;8.00;99.90;;;;;;5033011;28;20044;-78
2021/09/30 05:56:25;;;;;;;8.15;3.88;;;8.00;99.90;;;;;;5010272;28;20056;-77
2021/09/30 05:58:52;;;;;;;10.13;3.53;;;8.00;99.90;;;;;;5029957;28;20048;-80
2021/09/30 06:14:44;;;;;;;7.47;3.58;;;8.20;99.90;;;;;;5024833;28;20052;-75
2021/09/30 06:17:12;;;;;;;14.52;3.88;;;8.20;99.90;;;;;;5061147;28;20044;-76
2021/09/30 06:19:41;;;;;;;7.75;3.35;;;8.30;99.90;;;;;;5028972;28;20054;-79
2021/09/30 06:22:08;;;;;;;8.60;3.58;;;8.30;99.90;;;;;;5049217;28;20056;-77
2021/09/30 06:24:38;;;;;;;6.32;3.08;;;8.40;99.90;;;;;;5030909;28;20493;-77
2021/09/30 06:27:04;;;;;;;7.00;3.67;;;8.50;99.90;;;;;;5064084;28;20028;-79
2021/09/30 06:29:31;;;;;;;6.70;2.95;;;8.50;99.90;;;;;;5036136;28;20056;-78
2021/09/30 06:32:03;;;;;;;10.27;4.57;;;8.60;99.90;;;;;;5068347;28;20045;-76
2021/09/30 06:34:58;;;;;;;11.68;3.75;;;8.60;99.90;;;;;;5086420;28;20059;-76
2021/09/30 06:37:39;;;;;;;9.15;3.42;;;8.70;99.90;;;;;;5051156;28;20048;-76
2021/09/30 06:40:06;;;;;;;11.40;4.30;;;8.70;99.90;;;;;;5071722;28;20400;-76
2021/09/30 06:42:34;;;;;;;12.70;4.07;;;8.80;99.90;;;;;;5013082;28;20060;-76
2021/09/30 06:45:18;;;;;;;10.23;3.80;;;8.80;99.90;;;;;;5056067;28;20045;-76
2021/09/30 06:48:05;;;;;;;8.68;3.70;;;8.90;99.90;;;;;;5045679;28;20051;-76
2021/09/30 06:50:44;;;;;;;10.88;3.47;;;9.00;99.90;;;;;;5049009;28;20044;-76
2021/09/30 06:53:25;;;;;;;7.40;3.55;;;9.00;99.90;;;;;;5047691;28;20052;-77
2021/09/30 06:56:17;;;;;;;12.75;3.97;;;9.10;99.90;;;;;;5050426;28;20063;-77
2021/09/30 06:59:07;;;;;;;8.48;2.78;;;9.10;99.90;;;;;;5064855;28;20036;-77
2021/09/30 07:01:52;;;;;;;13.43;3.63;;;9.20;99.90;;;;;;5045355;28;20397;-77
2021/09/30 07:04:45;;;;;;;9.07;3.72;;;9.30;99.90;;;;;;5029423;28;20570;-77
2021/09/30 07:07:33;;;;;;;9.52;3.03;;;9.40;99.90;;;;;;5040125;28;20071;-77
2021/09/30 07:10:00;;;;;;;10.07;3.58;;;9.50;99.90;;;;;;5041525;28;20058;-78
2021/09/30 07:12:27;;;;;;;7.25;2.85;;;9.60;99.90;;;;;;5015604;28;20059;-77
2021/09/30 07:14:53;;;;;;;14.60;3.50;;;9.60;99.90;;;;;;5017222;28;20056;-77
2021/09/30 07:17:21;;;;;;;10.77;3.22;;;9.80;99.90;;;;;;5049784;28;20040;-78
2021/09/30 07:19:47;;;;;;;10.90;3.42;;;9.80;99.90;;;;;;5018635;28;20052;-78
2021/09/30 07:22:14;;;;;;;8.27;2.55;;;9.90;99.90;;;;;;5032651;28;20033;-78
2021/09/30 07:24:41;;;;;;;12.43;3.45;;;10.00;99.90;;;;;;5002518;28;20067;-78
2021/09/30 07:27:09;;;;;;;11.63;3.42;;;10.10;99.90;;;;;;5035320;28;20583;-78
2021/09/30 07:29:36;;;;;;;12.57;3.15;;;10.20;99.90;;;;;;5047118;28;20047;-78
2021/09/30 07:32:04;;;;;;;9.55;2.88;;;10.30;99.90;;;;;;5066039;28;20602;-78
2021/09/30 07:34:30;;;;;;;8.23;3.40;;;10.40;99.90;;;;;;5026964;28;20060;-78
2021/09/30 07:36:57;;;;;;;9.85;3.55;;;10.50;99.90;;;;;;5062650;28;20118;-78
2021/09/30 07:39:23;;;;;;;7.50;2.45;;;10.60;99.90;;;;;;5031666;28;20049;-78
2021/09/30 07:41:50;;;;;;;12.00;3.35;;;10.70;99.90;;;;;;5032522;28;20409;-78
2021/09/30 07:44:18;;;;;;;13.45;3.10;;;10.80;99.90;;;;;;5031154;28;20256;-78
2021/09/30 07:46:46;;;;;;;10.30;2.78;;;10.80;99.90;;;;;;5034631;28;20524;-78
2021/09/30 07:49:13;;;;;;;16.58;3.55;;;10.80;99.90;;;;;;5033934;28;20049;-78
2021/09/30 07:51:40;;;;;;;9.45;2.17;;;10.80;99.90;;;;;;5033207;28;20493;-78
2021/09/30 07:54:08;;;;;;;9.05;2.92;;;10.90;99.90;;;;;;5033571;28;20055;-78
2021/09/30 07:56:35;;;;;;;9.77;2.42;;;10.90;99.90;;;;;;5001439;28;20045;-78
2021/09/30 07:59:03;;;;;;;10.27;2.70;;;10.90;99.90;;;;;;5029831;28;20041;-78
2021/09/30 08:01:30;;;;;;;5.57;1.90;;;10.90;99.90;;;;;;5017071;28;20045;-78
2021/09/30 08:03:59;;;;;;;6.55;2.05;;;10.90;99.90;;;;;;4996048;28;20052;-78
2021/09/30 08:06:26;;;;;;;6.63;2.10;;;10.90;99.90;;;;;;5031374;28;20040;-78
2021/09/30 08:08:54;;;;;;;7.20;2.60;;;11.00;99.90;;;;;;5013178;28;20051;-78
2021/09/30 08:11:22;;;;;;;8.93;1.90;;;11.10;99.90;;;;;;4999027;28;20059;-78
2021/09/30 08:13:49;;;;;;;8.50;2.00;;;11.30;99.90;;;;;;5015893;28;20048;-78
2021/09/30 08:16:19;;;;;;;9.85;1.75;;;11.40;99.90;;;;;;5014886;28;20143;-78
2021/09/30 08:18:47;;;;;;;11.07;1.85;;;11.50;99.90;;;;;;5013326;28;20041;-78
2021/09/30 08:21:14;;;;;;;7.30;1.73;;;11.60;99.90;;;;;;5029507;28;20036;-78
2021/09/30 08:23:43;;;;;;;7.68;1.70;;;11.70;99.90;;;;;;5009488;28;20049;-78
2021/09/30 08:26:10;;;;;;;6.88;1.60;;;11.70;99.90;;;;;;4996329;28;20044;-78
2021/09/30 08:28:37;;;;;;;7.38;1.80;;;11.80;99.90;;;;;;5027986;28;20060;-78
2021/09/30 08:31:04;;;;;;;12.25;2.00;;;11.90;99.90;;;;;;4996133;28;20045;-78
2021/09/30 08:33:32;;;;;;;7.65;1.35;;;11.90;99.90;;;;;;5013255;28;20052;-78
2021/09/30 08:35:59;;;;;;;6.53;1.20;;;11.90;99.90;;;;;;4998419;28;20053;-78
2021/09/30 08:38:26;;;;;;;6.50;1.55;;;12.00;99.90;;;;;;4986691;28;20049;-78
2021/09/30 08:40:52;;;;;;;6.93;1.55;;;12.10;99.90;;;;;;5007327;28;20045;-78
2021/09/30 08:43:19;;;;;;;10.75;1.90;;;12.30;99.90;;;;;;5022919;28;20044;-78
2021/09/30 08:45:45;;;;;;;5.65;1.23;;;12.40;99.90;;;;;;4995458;28;20053;-78
2021/09/30 08:48:12;;;;;;;6.38;1.27;;;12.50;99.90;;;;;;5012635;28;20594;-79
2021/09/30 08:50:40;;;;;;;7.30;1.10;;;12.60;99.90;;;;;;5017752;28;20059;-78
2021/09/30 08:53:10;;;;;;;8.77;1.85;;;12.60;99.90;;;;;;5037222;28;20028;-78
2021/09/30 08:55:38;;;;;;;5.65;1.38;;;12.70;99.90;;;;;;5038246;28;20185;-78
2021/09/30 08:58:07;;;;;;;5.80;1.83;;;12.70;99.90;;;;;;5028162;28;20062;-78
2021/09/30 09:00:36;;;;;;;5.25;1.20;;;12.70;99.90;;;;;;5021780;28;20040;-78
2021/09/30 09:03:03;;;;;;;5.10;1.45;;;12.80;99.90;;;;;;5033142;28;20036;-78
2021/09/30 09:05:30;;;;;;;8.57;1.55;;;12.80;99.90;;;;;;5022368;28;20041;-79
2021/09/30 09:08:00;;;;;;;5.22;1.35;;;12.90;99.90;;;;;;5025183;28;20051;-78
2021/09/30 09:10:39;;;;;;;5.70;1.13;;;13.00;99.90;;;;;;5039513;28;20036;-78
2021/09/30 09:13:05;;;;;;;10.63;1.20;;;13.20;99.90;;;;;;5035990;28;20062;-78
2021/09/30 09:15:42;;;;;;;7.70;1.83;;;13.30;99.90;;;;;;5036681;28;20501;-78
2021/09/30 09:18:33;;;;;;;5.70;1.33;;;13.40;99.90;;;;;;5053826;28;20028;-78
2021/09/30 09:21:15;;;;;;;7.90;1.00;;;13.50;99.90;;;;;;5040412;28;20647;-78
2021/09/30 09:24:02;;;;;;;7.38;1.20;;;13.60;99.90;;;;;;5046716;28;20036;-78
2021/09/30 09:26:34;;;;;;;7.07;1.10;;;13.70;99.90;;;;;;5023740;28;20402;-78
2021/09/30 09:29:03;;;;;;;4.15;1.02;;;13.80;99.90;;;;;;5040306;28;20556;-78
2021/09/30 09:31:38;;;;;;;8.82;1.80;;;14.00;99.90;;;;;;5041940;28;20044;-78
2021/09/30 09:34:29;;;;;;;7.90;0.98;;;14.20;99.90;;;;;;5040580;28;20061;-78
2021/09/30 09:37:19;;;;;;;8.00;1.65;;;14.30;99.90;;;;;;5054710;28;20037;-78
2021/09/30 09:39:46;;;;;;;7.18;1.25;;;14.50;99.90;;;;;;5041222;28;20519;-78
2021/09/30 09:42:18;;;;;;;6.00;0.85;;;14.60;99.90;;;;;;5030630;28;20374;-78
2021/09/30 09:44:56;;;;;;;5.75;1.05;;;14.70;99.90;;;;;;5027723;28;20055;-78
2021/09/30 09:47:29;;;;;;;6.13;1.10;;;14.70;99.90;;;;;;5015816;28;20365;-78
2021/09/30 09:50:07;;;;;;;10.25;1.20;;;14.60;99.90;;;;;;5027479;28;20040;-78
2021/09/30 09:52:54;;;;;;;6.35;1.35;;;14.60;99.90;;;;;;5040965;28;20694;-78
2021/09/30 09:55:26;;;;;;;8.23;1.40;;;14.50;99.90;;;;;;5063610;28;20043;-79
2021/09/30 09:58:10;;;;;;;5.88;1.35;;;14.40;99.90;;;;;;5029496;28;20428;-77
2021/09/30 10:00:56;;;;;;;8.07;1.50;;;14.40;99.90;;;;;;5048854;28;20492;-77
2021/09/30 10:03:30;;;;;;;14.60;2.55;;;14.60;99.90;;;;;;5044264;28;20043;-77
2021/09/30 10:06:02;;;;;;;8.05;1.70;;;14.70;99.90;;;;;;5086549;28;20020;-77
2021/09/30 10:08:29;;;;;;;6.70;1.10;;;14.80;99.90;;;;;;5029511;28;20044;-77
2021/09/30 10:10:56;;;;;;;5.63;0.95;;;15.00;99.90;;;;;;5046194;28;20040;-77
2021/09/30 10:13:25;;;;;;;6.30;0.98;;;15.10;99.90;;;;;;5032617;28;20044;-78
2021/09/30 10:15:56;;;;;;;3.70;0.70;;;15.20;99.90;;;;;;5044239;28;20044;-78
2021/09/30 10:18:24;;;;;;;6.22;1.05;;;15.30;99.90;;;;;;5042046;28;20059;-77
2021/09/30 10:20:51;;;;;;;9.10;0.98;;;15.40;99.90;;;;;;5027303;28;20044;-77
2021/09/30 10:23:26;;;;;;;6.28;0.80;;;15.60;99.90;;;;;;5048784;28;20146;-77
2021/09/30 10:25:56;;;;;;;5.40;0.80;;;15.90;99.90;;;;;;5034610;28;20040;-77
2021/09/30 10:28:24;;;;;;;5.40;0.73;;;16.00;99.90;;;;;;5026816;28;20047;-77
2021/09/30 10:30:52;;;;;;;4.97;0.60;;;16.10;99.90;;;;;;5029940;28;20044;-81
2021/09/30 10:33:42;;;;;;;5.25;0.70;;;16.30;99.90;;;;;;5044494;28;20066;-78
2021/09/30 10:36:31;;;;;;;7.05;1.23;;;16.60;99.90;;;;;;5027494;28;20052;-78
2021/09/30 10:39:12;;;;;;;6.03;0.80;;;16.70;99.90;;;;;;5053346;28;20043;-77
2021/09/30 10:41:39;;;;;;;8.67;1.67;;;16.70;99.70;;;;;;5038647;28;20491;-77
2021/09/30 10:44:17;;;;;;;4.88;0.68;;;16.60;99.90;;;;;;5057704;28;20279;-76
2021/09/30 10:46:54;;;;;;;3.88;1.05;;;16.70;99.90;;;;;;5065284;28;20569;-76
2021/09/30 10:49:29;;;;;;;6.72;1.00;;;16.90;99.90;;;;;;5036518;28;21240;-76
2021/09/30 10:52:14;;;;;;;7.60;1.10;;;17.30;99.90;;;;;;5055725;28;20041;-77
2021/09/30 10:54:42;;;;;;;5.07;0.88;;;17.80;99.40;;;;;;5054679;28;20059;-77
2021/09/30 10:57:38;;;;;;;7.63;1.05;;;18.00;98.50;;;;;;5027975;28;20044;-79
2021/09/30 11:00:13;;;;;;;5.40;0.60;;;18.10;97.40;;;;;;5052656;28;20036;-77
2021/09/30 11:03:01;;;;;;;5.63;0.60;;;17.90;97.10;;;;;;5041841;28;20040;-76
2021/09/30 11:05:36;;;;;;;4.72;0.70;;;17.60;96.30;;;;;;5042656;28;20037;-76
2021/09/30 11:08:25;;;;;;;6.88;0.93;;;17.40;96.10;;;;;;5053743;28;20047;-77
2021/09/30 11:11:07;;;;;;;3.65;0.68;;;17.20;95.90;;;;;;5061082;28;20028;-75
2021/09/30 11:13:39;;;;;;;4.07;0.65;;;17.10;96.00;;;;;;5038411;28;20428;-76
2021/09/30 11:16:15;;;;;;;5.05;0.68;;;17.10;96.00;;;;;;5056355;28;20032;-76
2021/09/30 11:18:56;;;;;;;5.05;0.75;;;17.20;95.40;;;;;;5051259;28;20053;-76
2021/09/30 11:21:31;;;;;;;5.70;0.82;;;17.40;95.90;;;;;;5053891;28;20040;-76
2021/09/30 11:24:21;;;;;;;2.95;0.50;;;17.60;94.70;;;;;;5036036;28;20045;-76
2021/09/30 11:26:53;;;;;;;3.30;0.47;;;17.80;95.00;;;;;;5053996;28;20029;-77
2021/09/30 11:29:22;;;;;;;4.80;0.80;;;18.00;94.10;;;;;;5053741;28;20043;-77
2021/09/30 11:32:09;;;;;;;6.47;0.73;;;18.00;93.60;;;;;;5038947;28;20052;-77
2021/09/30 11:34:39;;;;;;;3.58;0.50;;;18.00;92.50;;;;;;5040194;28;20049;-77
2021/09/30 11:37:13;;;;;;;4.25;0.55;;;17.90;92.50;;;;;;5055924;28;20037;-77
2021/09/30 11:39:40;;;;;;;4.47;0.60;;;17.90;93.00;;;;;;5059118;28;20047;-77
2021/09/30 11:42:07;;;;;;;6.45;0.60;;;17.80;92.90;;;;;;5081880;28;20041;-77
2021/09/30 11:44:33;;;;;;;5.03;0.40;;;17.80;92.30;;;;;;5051922;28;20044;-77
2021/09/30 11:47:00;;;;;;;3.92;0.40;;;17.70;92.70;;;;;;5044586;28;20036;-77
2021/09/30 11:49:38;;;;;;;4.15;0.55;;;17.70;92.80;;;;;;5029180;28;20055;-77
2021/09/30 11:52:11;;;;;;;3.60;0.60;;;17.50;93.10;;;;;;5057253;28;20033;-75
2021/09/30 11:54:37;;;;;;;4.05;0.60;;;17.40;93.20;;;;;;5083757;28;20036;-76
2021/09/30 11:57:04;;;;;;;4.00;0.60;;;17.30;92.80;;;;;;5016333;28;20574;-76
2021/09/30 11:59:32;;;;;;;3.42;0.50;;;17.30;93.10;;;;;;5044661;28;20040;-76
2021/09/30 12:02:06;;;;;;;5.30;0.73;;;17.40;93.20;;;;;;5049554;28;20044;-76
2021/09/30 12:04:45;;;;;;;3.03;0.60;;;17.50;93.20;;;;;;5066134;28;20385;-76
2021/09/30 12:07:18;;;;;;;3.13;0.52;;;17.50;93.20;;;;;;5080084;28;20039;-76
2021/09/30 12:09:45;;;;;;;3.45;0.63;;;17.60;93.10;;;;;;5064881;28;20068;-76
2021/09/30 12:12:11;;;;;;;4.07;0.60;;;17.80;93.30;;;;;;5061854;28;20040;-76
2021/09/30 12:14:48;;;;;;;2.88;0.50;;;18.00;92.70;;;;;;5075674;28;20052;-76
2021/09/30 12:17:17;;;;;;;2.80;0.60;;;18.20;92.10;;;;;;5046644;28;20039;-76
2021/09/30 12:19:45;;;;;;;5.20;0.50;;;18.40;91.90;;;;;;5032996;28;20527;-76
2021/09/30 12:22:20;;;;;;;4.53;0.70;;;18.50;90.80;;;;;;5042104;28;20048;-76
2021/09/30 12:24:54;;;;;;;6.68;0.73;;;18.40;90.90;;;;;;5041520;28;20060;-76
2021/09/30 12:27:24;;;;;;;3.70;0.60;;;18.40;90.90;;;;;;5060071;28;20051;-76
2021/09/30 12:29:53;;;;;;;3.80;0.52;;;18.40;91.40;;;;;;5075318;28;20409;-76
2021/09/30 12:32:27;;;;;;;3.00;0.40;;;18.50;91.40;;;;;;5078465;28;20051;-75
2021/09/30 12:35:00;;;;;;;3.47;0.55;;;18.40;90.90;;;;;;5034644;28;20048;-76
2021/09/30 12:37:28;;;;;;;4.35;0.45;;;18.30;90.30;;;;;;5040953;28;20059;-76
2021/09/30 12:40:12;;;;;;;2.70;0.52;;;18.10;90.30;;;;;;5073362;28;20048;-76
2021/09/30 12:42:54;;;;;;;2.15;0.40;;;18.00;90.50;;;;;;5060884;28;20559;-76
2021/09/30 12:45:20;;;;;;;4.88;0.40;;;18.00;90.20;;;;;;5053430;28;20045;-76
2021/09/30 12:47:46;;;;;;;3.10;0.40;;;17.90;90.20;;;;;;5060863;28;20045;-76
2021/09/30 12:50:16;;;;;;;2.67;0.30;;;17.80;90.40;;;;;;5032635;28;20437;-76
2021/09/30 12:52:44;;;;;;;3.72;0.40;;;17.70;90.40;;;;;;5041872;28;20040;-76
2021/09/30 12:55:20;;;;;;;4.13;0.40;;;17.70;90.20;;;;;;5077848;28;20051;-76
2021/09/30 12:57:47;;;;;;;5.00;0.75;;;17.60;89.40;;;;;;5049012;28;20036;-78
2021/09/30 13:00:17;;;;;;;5.00;0.55;;;17.50;89.70;;;;;;5047714;28;20044;-77
2021/09/30 13:02:48;;;;;;;6.20;0.65;;;17.40;90.00;;;;;;5034294;28;20500;-77
2021/09/30 13:05:16;;;;;;;3.80;0.73;;;17.30;90.30;;;;;;5046049;28;20044;-77
2021/09/30 13:07:48;;;;;;;4.25;0.70;;;17.40;90.30;;;;;;5063429;28;20032;-75
2021/09/30 13:10:17;;;;;;;3.47;0.73;;;17.40;91.10;;;;;;5056877;28;20477;-75
2021/09/30 13:13:01;;;;;;;3.67;0.95;;;17.60;91.10;;;;;;5062101;28;20047;-75
2021/09/30 13:15:33;;;;;;;5.35;0.70;;;17.60;90.60;;;;;;5059278;28;20051;-75
2021/09/30 13:18:03;;;;;;;6.40;0.60;;;17.50;90.80;;;;;;5042909;28;20047;-74
2021/09/30 13:20:30;;;;;;;7.82;0.68;;;17.40;90.70;;;;;;5038525;28;20044;-74
2021/09/30 13:22:57;;;;;;;4.13;0.50;;;17.20;90.80;;;;;;5042493;28;20480;-75
2021/09/30 13:25:23;;;;;;;5.95;0.88;;;17.10;91.00;;;;;;5077746;28;20062;-75
2021/09/30 13:27:52;;;;;;;4.93;0.47;;;16.90;91.10;;;;;;5044834;28;20040;-75
2021/09/30 13:30:22;;;;;;;3.60;0.40;;;16.80;91.30;;;;;;5045888;28;20032;-75
2021/09/30 13:32:50;;;;;;;5.78;0.60;;;16.80;91.60;;;;;;5028178;28;20374;-75
2021/09/30 13:35:18;;;;;;;4.55;0.93;;;16.90;91.40;;;;;;5044868;28;20053;-75
2021/09/30 13:37:45;;;;;;;3.90;0.40;;;16.90;91.30;;;;;;5024887;28;20052;-75
2021/09/30 13:40:12;;;;;;;6.95;0.80;;;16.90;91.40;;;;;;5060971;28;20056;-75
2021/09/30 13:42:39;;;;;;;3.05;0.50;;;16.90;91.40;;;;;;5059435;28;20039;-75
2021/09/30 13:45:09;;;;;;;4.18;0.45;;;16.90;91.30;;;;;;5043828;28;20051;-75
2021/09/30 13:47:35;;;;;;;4.50;0.65;;;16.90;91.60;;;;;;5057934;28;20055;-75
2021/09/30 13:50:03;;;;;;;6.38;0.65;;;16.90;91.80;;;;;;5040347;28;20055;-75
2021/09/30 13:52:30;;;;;;;5.28;0.73;;;16.80;91.70;;;;;;5009319;28;20049;-76
2021/09/30 13:54:56;;;;;;;2.95;0.40;;;16.80;91.50;;;;;;5016505;28;20032;-75
2021/09/30 13:57:22;;;;;;;4.15;0.60;;;16.70;91.80;;;;;;5058134;28;20043;-75
2021/09/30 13:59:49;;;;;;;4.10;0.50;;;16.70;91.70;;;;;;5042595;28;20056;-76
2021/09/30 14:02:15;;;;;;;6.05;0.40;;;16.70;92.00;;;;;;5054567;28;20044;-75
2021/09/30 14:04:42;;;;;;;6.25;0.50;;;16.60;92.00;;;;;;5059371;28;20039;-76
2021/09/30 14:07:09;;;;;;;4.75;0.60;;;16.50;92.20;;;;;;5061174;28;20468;-76
2021/09/30 14:09:36;;;;;;;6.38;1.15;;;16.50;92.40;;;;;;5042095;28;20047;-75
2021/09/30 14:12:05;;;;;;;3.95;0.70;;;16.40;92.50;;;;;;5049602;28;20040;-74
2021/09/30 14:14:32;;;;;;;7.65;0.70;;;16.30;92.80;;;;;;5081956;28;20044;-75
2021/09/30 14:16:59;;;;;;;6.50;0.65;;;16.20;93.00;;;;;;5035866;28;20044;-75
2021/09/30 14:19:27;;;;;;;5.13;0.80;;;16.10;93.30;;;;;;5066057;28;20504;-75
2021/09/30 14:21:56;;;;;;;3.72;0.80;;;16.00;93.50;;;;;;5067625;28;20028;-76
2021/09/30 14:24:23;;;;;;;8.48;0.90;;;16.00;93.50;;;;;;5055848;28;20032;-76
2021/09/30 14:26:50;;;;;;;8.18;1.02;;;15.90;93.40;;;;;;5014603;28;20051;-75
2021/09/30 14:29:16;;;;;;;5.35;0.70;;;15.80;93.40;;;;;;5072071;28;20040;-77
2021/09/30 14:31:43;;;;;;;4.10;0.63;;;15.80;93.50;;;;;;5058643;28;20047;-76
2021/09/30 14:34:10;;;;;;;8.85;1.08;;;15.80;93.70;;;;;;5060939;28;20044;-77
2021/09/30 14:36:36;;;;;;;6.95;0.80;;;15.80;93.40;;;;;;5042969;28;20043;-77
2021/09/30 14:39:04;;;;;;;6.07;0.88;;;15.80;93.40;;;;;;5040016;28;20040;-78
2021/09/30 14:41:30;;;;;;;6.90;0.95;;;15.80;93.50;;;;;;5030130;28;20052;-78
2021/09/30 14:43:58;;;;;;;3.50;0.60;;;15.80;93.50;;;;;;5060331;28;20533;-77
2021/09/30 14:46:25;;;;;;;4.15;0.63;;;15.80;93.60;;;;;;5057679;28;20055;-77
2021/09/30 14:48:51;;;;;;;6.25;0.85;;;15.90;93.60;;;;;;5054091;28;20139;-76
2021/09/30 14:51:18;;;;;;;8.80;0.95;;;15.90;93.30;;;;;;5041170;28;20040;-77
2021/09/30 14:53:44;;;;;;;7.07;1.13;;;15.90;93.30;;;;;;5059836;28;20032;-77
2021/09/30 14:56:10;;;;;;;3.80;0.90;;;16.00;93.20;;;;;;5039864;28;20044;-77
2021/09/30 14:58:37;;;;;;;4.80;0.85;;;16.00;93.20;;;;;;5039975;28;20059;-77
2021/09/30 15:01:05;;;;;;;4.75;0.70;;;16.00;93.50;;;;;;5028663;28;20045;-77
2021/09/30 15:03:32;;;;;;;7.57;1.25;;;16.00;93.60;;;;;;5039294;28;20071;-77
2021/09/30 15:05:58;;;;;;;5.80;1.42;;;16.10;93.60;;;;;;5057867;28;20037;-76
2021/09/30 15:08:25;;;;;;;6.75;1.10;;;16.10;93.60;;;;;;5050985;28;20044;-76
2021/09/30 15:10:51;;;;;;;9.48;1.90;;;16.10;93.60;;;;;;5029443;28;20423;-76
2021/09/30 15:13:18;;;;;;;7.45;1.42;;;16.10;93.60;;;;;;5055696;28;20370;-76
2021/09/30 15:15:44;;;;;;;4.53;0.90;;;16.10;93.50;;;;;;5038171;28;20602;-75
2021/09/30 15:18:22;;;;;;;4.53;0.70;;;16.10;93.50;;;;;;5025592;28;20056;-76
2021/09/30 15:23:33;;;;;;;3.63;0.60;;;16.10;93.60;;;;;;5062053;28;20784;-78
2021/09/30 15:26:00;;;;;;;6.93;0.80;;;16.10;93.70;;;;;;5044719;28;20048;-76
2021/09/30 15:28:26;;;;;;;5.65;0.65;;;16.00;93.70;;;;;;5042870;28;20040;-78
2021/09/30 15:30:55;;;;;;;5.47;0.60;;;15.90;93.70;;;;;;5030637;28;20850;-76
2021/09/30 15:33:21;;;;;;;9.88;0.80;;;15.80;93.70;;;;;;5029794;28;20056;-77
2021/09/30 15:35:48;;;;;;;6.18;0.93;;;15.70;93.80;;;;;;5030291;28;20047;-75
2021/09/30 15:38:15;;;;;;;4.15;0.63;;;15.60;93.90;;;;;;5014329;28;20051;-81
2021/09/30 15:40:42;;;;;;;5.95;0.82;;;15.50;94.10;;;;;;5032459;28;20047;-79
2021/09/30 15:43:08;;;;;;;4.93;1.15;;;15.50;94.30;;;;;;5029655;28;20689;-79
2021/09/30 15:45:35;;;;;;;6.20;1.00;;;15.50;94.40;;;;;;5038246;28;20039;-76
2021/09/30 15:48:01;;;;;;;3.85;0.85;;;15.40;94.50;;;;;;5049059;28;20500;-79
2021/09/30 15:50:28;;;;;;;6.15;0.80;;;15.30;94.60;;;;;;5030928;28;20828;-79
2021/09/30 15:52:55;;;;;;;7.47;1.25;;;15.30;94.80;;;;;;5034733;28;20047;-79
2021/09/30 15:55:21;;;;;;;5.45;0.80;;;15.30;94.80;;;;;;5041711;28;20520;-76
2021/09/30 15:57:48;;;;;;;5.05;0.68;;;15.20;94.90;;;;;;5030233;28;20047;-76
2021/09/30 16:00:15;;;;;;;4.13;0.50;;;15.30;95.00;;;;;;5018235;28;20048;-78
2021/09/30 16:02:41;;;;;;;4.20;0.73;;;15.20;95.10;;;;;;5018318;28;20044;-78
2021/09/30 16:05:08;;;;;;;4.88;0.93;;;15.20;95.20;;;;;;5004287;28;20044;-77